Latest Weather Observations for Kurnell

IDN60801

Issued at 6:23 pm EST Saturday 9 May 2026 (issued every 10 minutes, with the page automatically refreshed every 10 minutes)

About weather observations | Map of weather stations | Latest weather observations for NSW | Other Formats
Station Details ID: 066043 Name: KURNELL AWS Lat: -34.00 Lon: 151.21 Height: 4.0 m
Data from the previous 72 hours. | See also: Recent months at Kurnell
Date/Time
EST
Temp
°C
App
Temp
°C
Dew
Point
°C
Rel
Hum
%
Delta-T
°C
Wind Press
QNH
hPa
Press
MSL
hPa
Rain since
9am
mm
Dir  Spd
km/h
Gust
km/h
Spd
kts
Gust
kts
09/06:00pm - - - - - S 7 11 4 6 - - -
09/05:30pm - - - - - SSE 6 7 3 4 - - -
09/05:00pm - - - - - S 9 13 5 7 - - -
09/04:30pm - - - - - SSE 13 17 7 9 - - -
09/04:00pm - - - - - SSE 11 17 6 9 - - -
09/03:30pm - - - - - S 15 20 8 11 - - -
09/03:00pm - - - - - S 19 24 10 13 - - -
09/02:30pm - - - - - SSW 19 26 10 14 - - -
09/02:00pm - - - - - S 20 28 11 15 - - -
09/01:30pm - - - - - SSW 22 32 12 17 - - -
09/01:00pm - - - - - SSW 24 32 13 17 - - -
09/12:30pm - - - - - SSW 24 32 13 17 - - -
09/12:00pm - - - - - SSW 24 32 13 17 - - -
09/11:30am - - - - - SSW 20 32 11 17 - - -
09/11:00am - - - - - SW 24 30 13 16 - - -
09/10:30am - - - - - NW 11 15 6 8 - - -
09/10:00am - - - - - NW 13 17 7 9 - - -
09/09:30am - - - - - NW 15 17 8 9 - - -
09/09:00am - - - - - NW 19 22 10 12 - - -
09/08:30am - - - - - WNW 22 26 12 14 - - -
09/08:00am - - - - - WNW 26 28 14 15 - - -
09/07:30am - - - - - WNW 26 30 14 16 - - -
09/07:00am - - - - - WNW 22 28 12 15 - - -
09/06:30am - - - - - NW 19 24 10 13 - - -
09/06:00am - - - - - WNW 15 17 8 9 - - -
09/05:30am - - - - - NW 17 19 9 10 - - -
09/05:00am - - - - - WNW 17 20 9 11 - - -
09/04:30am - - - - - WNW 17 19 9 10 - - -
09/04:00am - - - - - WNW 20 24 11 13 - - -
09/03:30am - - - - - W 17 19 9 10 - - -
09/03:00am - - - - - W 19 22 10 12 - - -
09/02:30am - - - - - WNW 19 22 10 12 - - -
09/02:00am - - - - - WNW 20 24 11 13 - - -
09/01:30am - - - - - WNW 19 20 10 11 - - -
09/01:00am - - - - - W 19 22 10 12 - - -
09/12:30am - - - - - W 17 20 9 11 - - -
09/12:00am - - - - - W 20 26 11 14 - - -
 
Date/Time
EST
Temp
°C
App
Temp
°C
Dew
Point
°C
Rel
Hum
%
Delta-T
°C
Wind Press
QNH
hPa
Press
MSL
hPa
Rain since
9am
mm
Dir  Spd
km/h
Gust
km/h
Spd
kts
Gust
kts
08/11:30pm - - - - - WSW 17 20 9 11 - - -
08/11:00pm - - - - - W 20 26 11 14 - - -
08/10:30pm - - - - - W 20 26 11 14 - - -
08/10:00pm - - - - - W 24 33 13 18 - - -
08/09:30pm - - - - - W 30 37 16 20 - - -
08/09:00pm - - - - - W 32 43 17 23 - - -
08/08:30pm - - - - - W 32 43 17 23 - - -
08/08:00pm - - - - - W 37 52 20 28 - - -
08/07:30pm - - - - - W 33 46 18 25 - - -
08/07:00pm - - - - - W 30 37 16 20 - - -
08/06:30pm - - - - - W 30 35 16 19 - - -
08/06:00pm - - - - - WNW 33 39 18 21 - - -
08/05:30pm - - - - - W 26 35 14 19 - - -
08/05:00pm - - - - - W 33 46 18 25 - - -
08/04:30pm - - - - - WSW 32 43 17 23 - - -
08/04:00pm - - - - - W 28 43 15 23 - - -
08/03:30pm - - - - - WNW 32 41 17 22 - - -
08/03:00pm - - - - - W 37 44 20 24 - - -
08/02:30pm - - - - - WNW 32 39 17 21 - - -
08/02:00pm - - - - - W 32 50 17 27 - - -
08/01:30pm - - - - - WNW 37 48 20 26 - - -
08/01:00pm - - - - - WNW 35 44 19 24 - - -
08/12:30pm - - - - - WNW 37 44 20 24 - - -
08/12:00pm - - - - - WNW 41 50 22 27 - - -
08/11:30am - - - - - WNW 41 50 22 27 - - -
08/11:00am - - - - - WNW 41 52 22 28 - - -
08/10:30am - - - - - WNW 39 48 21 26 - - -
08/10:00am - - - - - WNW 39 48 21 26 - - -
08/09:30am - - - - - WNW 33 39 18 21 - - -
08/09:00am - - - - - NW 33 43 18 23 - - -
08/08:30am - - - - - NW 37 46 20 25 - - -
08/08:00am - - - - - NW 35 41 19 22 - - -
08/07:30am - - - - - NW 35 43 19 23 - - -
08/07:00am - - - - - NW 35 41 19 22 - - -
08/06:30am - - - - - NW 35 41 19 22 - - -
08/06:00am - - - - - WNW 33 39 18 21 - - -
08/05:30am - - - - - WNW 33 39 18 21 - - -
08/05:00am - - - - - WNW 32 37 17 20 - - -
08/04:30am - - - - - WNW 33 37 18 20 - - -
08/04:00am - - - - - WNW 28 33 15 18 - - -
08/03:30am - - - - - WNW 32 35 17 19 - - -
08/03:00am - - - - - WNW 33 39 18 21 - - -
08/02:30am - - - - - WNW 33 41 18 22 - - -
08/02:00am - - - - - WNW 37 41 20 22 - - -
08/01:30am - - - - - WNW 33 39 18 21 - - -
08/01:00am - - - - - WNW 37 48 20 26 - - -
08/12:30am - - - - - WNW 37 48 20 26 - - -
08/12:00am - - - - - WNW 32 37 17 20 - - -
 
Date/Time
EST
Temp
°C
App
Temp
°C
Dew
Point
°C
Rel
Hum
%
Delta-T
°C
Wind Press
QNH
hPa
Press
MSL
hPa
Rain since
9am
mm
Dir  Spd
km/h
Gust
km/h
Spd
kts
Gust
kts
07/11:30pm - - - - - WNW 30 35 16 19 - - -
07/11:00pm - - - - - W 37 50 20 27 - - -
07/10:30pm - - - - - WNW 37 44 20 24 - - -
07/10:00pm - - - - - WNW 37 48 20 26 - - -
07/09:30pm - - - - - WNW 35 48 19 26 - - -
07/09:00pm - - - - - WNW 41 54 22 29 - - -
07/08:30pm - - - - - WNW 33 46 18 25 - - -
07/08:00pm - - - - - WNW 35 43 19 23 - - -
07/07:30pm - - - - - WNW 37 46 20 25 - - -
07/07:00pm - - - - - WNW 43 54 23 29 - - -
07/06:30pm - - - - - WNW 44 59 24 32 - - -
07/06:00pm - - - - - WNW 39 54 21 29 - - -
07/05:30pm - - - - - WNW 39 48 21 26 - - -
07/05:00pm - - - - - WNW 37 46 20 25 - - -
07/04:30pm - - - - - W 43 56 23 30 - - -
07/04:00pm - - - - - W 44 57 24 31 - - -
07/03:30pm - - - - - W 43 59 23 32 - - -
07/03:00pm - - - - - W 43 52 23 28 - - -
07/02:30pm - - - - - W 43 56 23 30 - - -
07/02:00pm - - - - - W 46 65 25 35 - - -
07/01:45pm - - - - - WNW 52 70 28 38 - - -
07/01:30pm - - - - - WNW 44 56 24 30 - - -
07/01:08pm - - - - - W 39 57 21 31 - - -
07/01:00pm - - - - - W 41 57 22 31 - - -
07/12:37pm - - - - - W 46 65 25 35 - - -
07/12:30pm - - - - - W 43 57 23 31 - - -
07/12:00pm - - - - - W 50 63 27 34 - - -
07/11:53am - - - - - WNW 48 63 26 34 - - -
07/11:48am - - - - - WNW 39 57 21 31 - - -
07/11:30am - - - - - W 46 63 25 34 - - -
07/11:23am - - - - - W 37 63 20 34 - - -
07/11:00am - - - - - WNW 44 57 24 31 - - -
07/10:30am - - - - - WNW 35 63 19 34 - - -
07/10:29am - - - - - WNW 32 63 17 34 - - -
07/10:28am - - - - - WNW 28 50 15 27 - - -
07/10:00am - - - - - NW 17 28 9 15 - - -
07/09:30am - - - - - NNW 15 22 8 12 - - -
07/09:00am - - - - - NNW 17 20 9 11 - - -
07/08:30am - - - - - NNW 19 24 10 13 - - -
07/08:00am - - - - - NNW 20 24 11 13 - - -
07/07:30am - - - - - NNW 17 22 9 12 - - -
07/07:00am - - - - - NW 19 26 10 14 - - -
07/06:30am - - - - - W 15 19 8 10 - - -
07/06:00am - - - - - W 15 20 8 11 - - -
07/05:30am - - - - - W 22 33 12 18 - - -
07/05:00am - - - - - WSW 24 30 13 16 - - -
07/04:30am - - - - - W 30 33 16 18 - - -
07/04:00am - - - - - W 24 28 13 15 - - -
07/03:30am - - - - - W 19 24 10 13 - - -
07/03:00am - - - - - WNW 17 19 9 10 - - -
07/02:30am - - - - - WNW 15 19 8 10 - - -
07/02:00am - - - - - WNW 15 20 8 11 - - -
07/01:30am - - - - - WNW 17 26 9 14 - - -
07/01:00am - - - - - NW 17 20 9 11 - - -
07/12:30am - - - - - NW 17 20 9 11 - - -
07/12:00am - - - - - NNW 15 19 8 10 - - -
 
Date/Time
EST
Temp
°C
App
Temp
°C
Dew
Point
°C
Rel
Hum
%
Delta-T
°C
Wind Press
QNH
hPa
Press
MSL
hPa
Rain since
9am
mm
Dir  Spd
km/h
Gust
km/h
Spd
kts
Gust
kts
06/11:30pm - - - - - NNW 15 19 8 10 - - -
06/11:00pm - - - - - NNW 19 22 10 12 - - -
06/10:30pm - - - - - NW 19 24 10 13 - - -
06/10:00pm - - - - - NW 19 20 10 11 - - -
06/09:30pm - - - - - NNW 11 13 6 7 - - -
06/09:00pm - - - - - N 11 13 6 7 - - -
06/08:30pm - - - - - N 6 9 3 5 - - -
06/08:00pm - - - - - NNE 7 9 4 5 - - -
06/07:30pm - - - - - NE 7 9 4 5 - - -
06/07:00pm - - - - - E 7 9 4 5 - - -
06/06:30pm - - - - - ENE 11 15 6 8 - - -

Other formats

Comma delimited format used in spreadsheet applications
http://www.bom.gov.au/fwo/IDN60801/IDN60801.95756.axf

JavaScript Object Notation format (JSON) in row-major order
http://www.bom.gov.au/fwo/IDN60801/IDN60801.95756.json

Data quality

Most of these data are generated automatically and are frequently updated. Quality checks on data are not normally performed. It is possible for incorrect values to appear. Refer to information at About Latest Weather Observations and please check the disclaimer before using these data.